Time;durP1;ratioP1;P1;durP2;ratioP2;P2;SDS_P1;SDS_P2;PMS_P1;PMS_P2;Temp;Humidity;BMP_temperature;BMP_pressure;BME280_temperature;BME280_humidity;BME280_pressure;Samples;Min_cycle;Max_cycle;Signal;HPM_P1;HPM_P2
2023/03/11 12:48:26;;;;;;;4.00;1.50;;;;;;;3.24;100.00;99567.13;4714607;22;9893740;-43
2023/03/11 12:51:05;;;;;;;4.03;1.58;;;;;;;3.30;100.00;99566.63;5068110;28;20398;-44
2023/03/11 12:53:43;;;;;;;5.15;2.25;;;;;;;3.36;100.00;99564.53;5064495;28;20103;-43
2023/03/11 12:56:35;;;;;;;3.03;1.88;;;;;;;3.40;100.00;99570.94;5053377;28;20056;-42
2023/03/11 12:59:20;;;;;;;3.30;1.58;;;;;;;3.45;100.00;99571.56;5046653;28;20110;-43
2023/03/11 13:01:55;;;;;;;3.88;1.83;;;;;;;3.52;100.00;99557.41;5042866;28;20041;-44
2023/03/11 13:04:43;;;;;;;3.95;2.35;;;;;;;3.56;100.00;99566.53;5042900;28;20038;-44
2023/03/11 13:07:13;;;;;;;5.65;2.50;;;;;;;3.62;100.00;99570.72;5056347;28;20081;-46
2023/03/11 13:09:40;;;;;;;8.93;2.65;;;;;;;3.65;100.00;99548.16;5039906;28;20056;-46
2023/03/11 13:12:39;;;;;;;10.93;4.10;;;;;;;3.67;100.00;99546.72;5042240;28;20394;-43
2023/03/11 13:15:36;;;;;;;3.53;2.17;;;;;;;3.70;100.00;99528.81;5044715;28;20489;-44
2023/03/11 13:18:11;;;;;;;6.43;3.35;;;;;;;3.75;100.00;99536.84;5043500;28;20049;-46
2023/03/11 13:20:41;;;;;;;9.80;2.30;;;;;;;3.79;100.00;99535.03;5054147;28;20037;-46
2023/03/11 13:23:13;;;;;;;3.88;2.20;;;;;;;3.81;100.00;99513.63;5047706;28;20063;-43
2023/03/11 13:25:41;;;;;;;;;;;;;;;3.83;100.00;99533.28;5043121;28;20045;-42
2023/03/11 13:28:30;;;;;;;5.97;2.40;;;;;;;3.81;100.00;99524.59;5048273;28;19924;-43
2023/03/11 13:31:15;;;;;;;3.00;2.17;;;;;;;3.82;100.00;99506.22;5040582;28;20224;-43
2023/03/11 13:33:54;;;;;;;4.95;2.33;;;;;;;3.82;100.00;99504.28;5047657;28;20041;-44
2023/03/11 13:37:04;;;;;;;8.88;2.85;;;;;;;3.83;100.00;99499.59;5057879;28;20064;-43
2023/03/11 13:39:53;;;;;;;5.85;2.83;;;;;;;3.83;100.00;99494.94;5041875;28;20060;-43
2023/03/11 13:42:30;;;;;;;11.02;5.20;;;;;;;3.87;100.00;99495.88;5045654;28;20056;-45
2023/03/11 13:44:57;;;;;;;13.32;3.60;;;;;;;3.90;100.00;99489.75;5042154;28;20049;-44
2023/03/11 13:47:26;;;;;;;7.43;2.95;;;;;;;3.92;100.00;99482.00;5042656;28;20102;-43
2023/03/11 13:49:59;;;;;;;9.10;2.75;;;;;;;3.97;100.00;99475.53;5079793;28;20152;-49
2023/03/11 13:52:35;;;;;;;4.65;1.95;;;;;;;3.99;100.00;99454.91;5092241;28;20113;-49
2023/03/11 13:55:16;;;;;;;11.70;3.95;;;;;;;4.05;100.00;99459.03;5069710;28;20523;-43
2023/03/11 13:57:52;;;;;;;10.50;3.15;;;;;;;4.12;100.00;99458.50;5084901;28;20051;-44
2023/03/11 14:00:29;;;;;;;5.90;3.08;;;;;;;4.18;100.00;99451.69;5100047;28;20071;-43
2023/03/11 14:03:10;;;;;;;6.38;2.90;;;;;;;4.24;100.00;99440.19;5076981;28;20417;-42
2023/03/11 14:05:44;;;;;;;6.15;2.13;;;;;;;4.30;100.00;99438.06;5065172;28;20370;-49
2023/03/11 14:08:26;;;;;;;6.32;2.08;;;;;;;4.35;100.00;99445.25;5087794;28;20076;-48
2023/03/11 14:10:59;;;;;;;5.78;1.88;;;;;;;4.36;100.00;99438.66;5091011;28;20516;-44
2023/03/11 14:13:28;;;;;;;7.72;2.10;;;;;;;4.37;100.00;99432.06;5086498;28;20063;-43
2023/03/11 14:16:06;;;;;;;5.57;2.00;;;;;;;4.39;100.00;99436.06;5074313;28;20084;-43
2023/03/11 14:18:41;;;;;;;4.75;2.58;;;;;;;4.41;100.00;99428.28;5064558;28;20044;-43
2023/03/11 14:21:17;;;;;;;2.70;1.70;;;;;;;4.43;100.00;99414.25;5090459;28;20497;-42
2023/03/11 14:23:47;;;;;;;4.43;2.00;;;;;;;4.45;100.00;99407.28;5086759;28;20032;-42
2023/03/11 14:26:18;;;;;;;4.70;2.83;;;;;;;4.48;100.00;99403.06;5075542;28;20059;-48
2023/03/11 14:28:51;;;;;;;3.50;1.77;;;;;;;4.52;100.00;99407.56;5090946;28;20490;-43
2023/03/11 14:31:24;;;;;;;;;;;;;;;4.56;100.00;99402.19;5083251;28;20163;-42
2023/03/11 14:34:06;;;;;;;4.63;2.45;;;;;;;4.56;100.00;99403.00;5078256;28;19928;-42
2023/03/11 14:36:49;;;;;;;7.57;3.70;;;;;;;4.56;100.00;99403.00;5064742;28;20040;-46
2023/03/11 14:39:33;;;;;;;4.53;2.50;;;;;;;4.59;100.00;99391.34;5090319;28;20045;-43
2023/03/11 14:42:06;;;;;;;5.22;1.80;;;;;;;4.62;100.00;99384.38;5088246;28;20404;-44
2023/03/11 14:44:39;;;;;;;13.98;3.03;;;;;;;4.65;100.00;99367.28;5057225;28;20036;-44
2023/03/11 14:47:38;;;;;;;5.68;4.15;;;;;;;4.67;100.00;99367.72;5084134;28;20065;-43
2023/03/11 14:50:12;;;;;;;13.35;3.50;;;;;;;4.67;100.00;99368.53;5082179;28;20049;-45
2023/03/11 14:52:49;;;;;;;5.32;2.45;;;;;;;4.67;100.00;99375.94;5072542;28;20040;-44
2023/03/11 14:55:23;;;;;;;10.55;3.45;;;;;;;4.65;100.00;99368.09;5090290;28;20048;-46
2023/03/11 14:57:58;;;;;;;7.03;3.45;;;;;;;4.65;100.00;99364.53;5085619;28;20037;-43
2023/03/11 15:00:29;;;;;;;10.45;3.05;;;;;;;4.65;100.00;99364.53;5087345;28;20119;-48
2023/03/11 15:03:21;;;;;;;8.32;2.92;;;;;;;4.64;100.00;99365.66;5084707;28;20131;-45
2023/03/11 15:05:55;;;;;;;4.87;2.83;;;;;;;4.64;100.00;99339.06;5065658;28;20048;-43
2023/03/11 15:08:26;;;;;;;6.20;3.00;;;;;;;4.64;100.00;99355.50;5090157;28;20066;-43
2023/03/11 15:11:21;;;;;;;10.80;3.90;;;;;;;4.66;100.00;99363.41;5090015;28;20052;-43
2023/03/11 15:13:50;;;;;;;12.25;6.78;;;;;;;4.67;100.00;99348.53;5085849;28;20123;-43
2023/03/11 15:16:31;;;;;;;13.57;5.88;;;;;;;4.68;100.00;99339.19;5076191;28;20075;-43
2023/03/11 15:19:24;;;;;;;18.23;9.73;;;;;;;4.73;100.00;99348.00;5090252;28;20113;-43
2023/03/11 15:21:53;;;;;;;8.13;4.38;;;;;;;4.76;100.00;99338.28;5078538;28;20052;-43
2023/03/11 15:24:21;;;;;;;8.43;3.55;;;;;;;4.79;100.00;99332.91;5089976;28;20063;-43
2023/03/11 15:26:56;;;;;;;14.00;4.20;;;;;;;4.79;100.00;99323.91;5079035;28;20040;-47
2023/03/11 15:29:25;;;;;;;6.53;3.47;;;;;;;4.81;100.00;99332.56;5089598;28;20048;-43
2023/03/11 15:31:52;;;;;;;6.95;3.42;;;;;;;4.83;100.00;99324.81;5084809;28;20143;-43
2023/03/11 15:34:25;;;;;;;11.32;4.05;;;;;;;4.84;100.00;99318.19;5082501;28;20040;-43
2023/03/11 15:36:54;;;;;;;9.00;3.35;;;;;;;4.85;100.00;99309.59;5072425;28;20044;-43
2023/03/11 15:39:31;;;;;;;8.38;3.08;;;;;;;4.87;100.00;99314.78;5089932;28;20044;-43
2023/03/11 15:42:06;;;;;;;10.48;5.03;;;;;;;4.90;100.00;99314.06;5067952;28;20057;-48
2023/03/11 15:44:41;;;;;;;10.80;4.35;;;;;;;4.93;100.00;99303.22;5071798;28;20048;-48
2023/03/11 15:47:13;;;;;;;10.48;4.22;;;;;;;4.97;100.00;99297.84;5084522;28;20076;-44
2023/03/11 15:49:41;;;;;;;9.40;3.88;;;;;;;4.99;100.00;99309.28;5079238;28;20056;-44
2023/03/11 15:52:08;;;;;;;5.85;3.80;;;;;;;5.01;100.00;99309.72;5089889;28;20051;-44
2023/03/11 15:54:35;;;;;;;5.93;2.72;;;;;;;5.02;100.00;99300.38;5089469;28;20445;-44
2023/03/11 15:57:07;;;;;;;8.50;3.30;;;;;;;5.04;100.00;99295.31;5089312;28;20048;-45
2023/03/11 15:59:36;;;;;;;8.10;3.25;;;;;;;5.06;100.00;99301.25;5088442;28;20043;-42
2023/03/11 16:02:03;;;;;;;9.68;4.47;;;;;;;5.11;100.00;99297.50;5089340;28;20055;-43
2023/03/11 16:04:29;;;;;;;7.10;4.60;;;;;;;5.13;100.00;99290.53;5089082;28;20040;-45
2023/03/11 16:06:56;;;;;;;7.05;3.80;;;;;;;5.15;100.00;99287.44;5069353;28;20052;-43
2023/03/11 16:09:33;;;;;;;8.98;3.90;;;;;;;5.12;100.00;99279.88;5064867;28;20051;-43
2023/03/11 16:12:00;;;;;;;9.15;4.65;;;;;;;5.10;100.00;99283.00;5088798;28;20052;-43
2023/03/11 16:14:28;;;;;;;11.55;3.90;;;;;;;5.08;100.00;99266.09;5088895;28;20485;-42
2023/03/11 16:16:55;;;;;;;6.78;4.15;;;;;;;5.11;100.00;99270.84;5086953;28;20063;-49
2023/03/11 16:19:22;;;;;;;6.32;3.58;;;;;;;5.11;100.00;99265.38;5089256;28;20146;-42
2023/03/11 16:21:49;;;;;;;7.72;3.90;;;;;;;5.10;100.00;99265.72;5088829;28;20051;-42
2023/03/11 16:24:21;;;;;;;9.52;4.18;;;;;;;5.10;100.00;99265.72;5081241;28;20446;-46
2023/03/11 16:26:50;;;;;;;9.90;4.95;;;;;;;5.08;100.00;99255.13;5086898;28;20044;-43
2023/03/11 16:29:18;;;;;;;7.32;5.15;;;;;;;5.08;100.00;99266.09;5088793;28;20040;-42
2023/03/11 16:31:45;;;;;;;6.28;3.60;;;;;;;5.09;100.00;99261.38;5087982;28;20547;-42
2023/03/11 16:34:12;;;;;;;5.45;4.43;;;;;;;5.11;100.00;99256.38;5080376;28;20033;-43
2023/03/11 16:36:39;;;;;;;14.05;6.63;;;;;;;5.10;100.00;99252.81;5086232;28;20054;-42
2023/03/11 16:39:06;;;;;;;15.60;8.02;;;;;;;5.11;100.00;99259.09;5087986;28;20040;-42
2023/03/11 16:41:43;;;;;;;20.17;9.38;;;;;;;5.11;100.00;99254.41;5043105;28;20052;-41
2023/03/11 16:44:11;;;;;;;27.08;10.80;;;;;;;5.13;100.00;99265.03;5087819;28;20052;-43
2023/03/11 16:46:39;;;;;;;17.08;9.02;;;;;;;5.14;100.00;99248.22;5088351;28;20047;-45
2023/03/11 16:49:06;;;;;;;25.33;16.23;;;;;;;5.16;100.00;99245.97;5088041;28;20148;-42
2023/03/11 16:51:33;;;;;;;15.80;10.93;;;;;;;5.19;100.00;99244.47;5088047;28;20476;-42
2023/03/11 16:53:59;;;;;;;13.38;8.32;;;;;;;5.22;100.00;99246.50;5087882;28;20405;-45
2023/03/11 16:56:26;;;;;;;18.80;11.48;;;;;;;5.28;100.00;99245.91;5086941;28;20401;-41
2023/03/11 16:58:53;;;;;;;36.42;18.92;;;;;;;5.34;100.00;99241.00;5072158;28;20040;-42
2023/03/11 17:01:21;;;;;;;82.40;40.00;;;;;;;5.34;100.00;99247.28;5088555;28;20071;-42
2023/03/11 17:03:50;;;;;;;48.97;23.02;;;;;;;5.33;100.00;99244.88;5088194;28;20044;-42
2023/03/11 17:06:19;;;;;;;56.40;24.40;;;;;;;5.31;100.00;99237.00;5085600;28;20054;-45
2023/03/11 17:08:48;;;;;;;100.15;40.90;;;;;;;5.31;100.00;99231.50;5088877;28;20143;-42
2023/03/11 17:11:20;;;;;;;34.20;17.25;;;;;;;5.31;100.00;99228.75;5087966;28;20048;-42
2023/03/11 17:13:48;;;;;;;104.18;41.03;;;;;;;5.31;100.00;99234.25;5057368;28;20047;-43
2023/03/11 17:16:15;;;;;;;56.78;27.75;;;;;;;5.31;100.00;99226.03;5063833;28;20037;-43
2023/03/11 17:18:42;;;;;;;30.83;15.30;;;;;;;5.32;100.00;99222.13;5088077;28;20040;-42
2023/03/11 17:21:11;;;;;;;37.65;20.83;;;;;;;5.34;100.00;99219.84;5070349;28;20048;-47
2023/03/11 17:23:38;;;;;;;27.85;14.98;;;;;;;5.34;100.00;99222.59;5088325;28;20044;-50
2023/03/11 17:26:11;;;;;;;25.27;14.77;;;;;;;5.34;100.00;99219.84;5059023;28;20565;-45
2023/03/11 17:28:41;;;;;;;25.63;14.70;;;;;;;5.35;100.00;99223.38;5068331;28;20041;-41
2023/03/11 17:31:12;;;;;;;14.93;9.98;;;;;;;5.35;100.00;99223.38;5075344;28;20048;-43
2023/03/11 17:33:41;;;;;;;29.45;17.10;;;;;;;5.36;100.00;99220.28;5073287;28;20048;-42
2023/03/11 17:36:10;;;;;;;41.63;19.95;;;;;;;5.36;100.00;99217.53;5083994;28;20139;-42
2023/03/11 17:38:37;;;;;;;43.85;17.92;;;;;;;5.38;100.00;99217.19;5091726;28;20044;-43
2023/03/11 17:41:11;;;;;;;39.80;20.58;;;;;;;5.38;100.00;99215.25;5091672;28;20040;-42
2023/03/11 17:43:38;;;;;;;28.60;17.58;;;;;;;5.39;100.00;99216.84;5091639;28;20444;-41
2023/03/11 17:46:06;;;;;;;34.10;19.58;;;;;;;5.39;100.00;99205.88;5073018;28;20445;-42
2023/03/11 17:48:33;;;;;;;24.13;15.07;;;;;;;5.41;100.00;99214.56;5080695;28;20040;-43
2023/03/11 17:51:07;;;;;;;31.33;19.25;;;;;;;5.42;100.00;99218.09;5090711;28;20051;-42
2023/03/11 17:53:34;;;;;;;53.00;32.85;;;;;;;5.43;100.00;99212.25;5091401;28;20056;-43
2023/03/11 17:56:01;;;;;;;32.33;20.40;;;;;;;5.46;100.00;99225.28;5073756;28;20477;-43
2023/03/11 17:58:29;;;;;;;33.88;19.73;;;;;;;5.46;100.00;99217.06;5091618;28;20420;-43
2023/03/11 18:00:56;;;;;;;86.75;45.30;;;;;;;5.47;100.00;99215.91;5091428;28;20383;-45
2023/03/11 18:03:22;;;;;;;59.97;32.88;;;;;;;5.49;100.00;99207.31;5091201;28;20493;-43
2023/03/11 18:05:57;;;;;;;39.38;24.73;;;;;;;5.51;100.00;99214.06;5086658;28;20478;-43
2023/03/11 18:08:24;;;;;;;46.80;26.65;;;;;;;5.52;100.00;99210.19;5070507;28;20076;-44
2023/03/11 18:10:52;;;;;;;51.40;26.80;;;;;;;5.52;100.00;99210.19;5081166;28;20044;-44
2023/03/11 18:13:20;;;;;;;65.30;35.92;;;;;;;5.55;100.00;99214.16;5072268;28;20436;-43
2023/03/11 18:15:56;;;;;;;65.00;35.35;;;;;;;5.56;100.00;99209.47;5083424;28;20043;-43
2023/03/11 18:18:23;;;;;;;51.08;31.08;;;;;;;5.57;100.00;99228.34;5089578;28;20049;-44
2023/03/11 18:20:50;;;;;;;46.88;28.20;;;;;;;5.58;100.00;99224.44;5091273;28;20411;-43
2023/03/11 18:23:17;;;;;;;57.10;30.67;;;;;;;5.60;100.00;99222.16;5078514;28;20032;-52
2023/03/11 18:25:49;;;;;;;84.70;45.47;;;;;;;5.61;100.00;99220.22;5081110;28;20052;-44
2023/03/11 18:28:17;;;;;;;57.45;36.22;;;;;;;5.62;100.00;99221.78;5089992;28;20109;-43
2023/03/11 18:30:45;;;;;;;69.50;38.38;;;;;;;5.62;100.00;99219.03;5090578;28;20048;-43
2023/03/11 18:33:12;;;;;;;86.00;46.03;;;;;;;5.64;100.00;99222.25;5090985;28;20130;-50
2023/03/11 18:35:39;;;;;;;70.53;41.92;;;;;;;5.65;100.00;99235.63;5080538;28;20072;-44
2023/03/11 18:38:06;;;;;;;82.22;46.17;;;;;;;5.65;100.00;99229.31;5077708;28;20056;-43
2023/03/11 18:40:33;;;;;;;85.28;47.55;;;;;;;5.67;100.00;99233.31;5085241;28;20148;-44
2023/03/11 18:43:00;;;;;;;92.82;52.95;;;;;;;5.68;100.00;99239.63;5091278;28;20044;-43
2023/03/11 18:45:26;;;;;;;94.60;55.45;;;;;;;5.69;100.00;99235.72;5090859;28;20182;-43
2023/03/11 18:47:53;;;;;;;83.70;48.97;;;;;;;5.71;100.00;99244.41;5072244;28;20484;-44
2023/03/11 18:50:20;;;;;;;85.05;50.78;;;;;;;5.73;100.00;99231.13;5089901;28;20079;-43
2023/03/11 18:52:51;;;;;;;89.03;53.20;;;;;;;5.75;100.00;99250.78;5090962;28;20094;-43
2023/03/11 18:55:18;;;;;;;101.25;56.78;;;;;;;5.76;100.00;99247.72;5072244;28;20512;-43
2023/03/11 18:57:45;;;;;;;85.07;47.88;;;;;;;5.78;100.00;99250.91;5078639;28;20055;-44
2023/03/11 19:00:15;;;;;;;72.72;45.08;;;;;;;5.85;100.00;99253.88;5090265;28;20048;-44
2023/03/11 19:02:42;;;;;;;64.25;35.13;;;;;;;5.95;100.00;99253.38;5090496;28;20090;-43
2023/03/11 19:05:09;;;;;;;49.17;26.17;;;;;;;6.14;100.00;99252.72;5086212;28;20054;-43
2023/03/11 19:07:36;;;;;;;31.23;17.75;;;;;;;6.33;100.00;99261.06;5090244;28;20044;-45
2023/03/11 19:10:03;;;;;;;32.10;17.38;;;;;;;6.54;100.00;99256.09;5090059;28;20050;-47
2023/03/11 19:12:32;;;;;;;21.88;13.85;;;;;;;6.80;100.00;99263.03;5088032;28;20417;-43
2023/03/11 19:14:59;;;;;;;24.00;13.20;;;;;;;6.97;100.00;99268.16;5087089;28;20040;-48
2023/03/11 19:17:25;;;;;;;24.70;14.32;;;;;;;7.15;100.00;99275.66;5081006;28;20056;-42
2023/03/11 19:19:52;;;;;;;26.42;15.77;;;;;;;7.24;100.00;99273.53;5089669;28;20101;-41
2023/03/11 19:22:19;;;;;;;26.98;17.63;;;;;;;7.32;100.00;99277.25;5068640;28;20079;-41
2023/03/11 19:24:46;;;;;;;32.25;16.98;;;;;;;7.39;100.00;99285.66;5085818;28;20139;-41
2023/03/11 19:27:12;;;;;;;26.55;14.70;;;;;;;7.45;100.00;99278.72;5081601;28;20050;-41
2023/03/11 19:29:39;;;;;;;30.10;16.25;;;;;;;7.51;100.00;99296.56;5086138;28;20098;-43
2023/03/11 19:32:05;;;;;;;29.45;16.15;;;;;;;7.58;100.00;99293.94;5081040;28;20085;-49
2023/03/11 19:34:32;;;;;;;32.72;16.45;;;;;;;7.64;100.00;99286.19;5088033;28;20266;-48
2023/03/11 19:36:59;;;;;;;28.02;15.60;;;;;;;7.69;100.00;99292.22;5080545;28;20101;-41
2023/03/11 19:39:26;;;;;;;27.00;12.88;;;;;;;7.76;100.00;99306.13;5088993;28;20047;-42
2023/03/11 19:41:54;;;;;;;21.17;13.15;;;;;;;7.81;100.00;99302.31;5089441;28;20040;-41
2023/03/11 19:44:21;;;;;;;34.03;14.02;;;;;;;7.84;100.00;99312.59;5089282;28;20131;-42
2023/03/11 19:46:47;;;;;;;40.70;14.65;;;;;;;7.89;100.00;99304.03;5084969;28;20490;-42
2023/03/11 19:49:14;;;;;;;29.13;13.13;;;;;;;7.92;100.00;99297.81;5064451;28;20036;-41
2023/03/11 19:51:41;;;;;;;38.15;15.75;;;;;;;7.96;100.00;99305.00;5062816;28;20060;-42
2023/03/11 19:54:16;;;;;;;34.50;15.00;;;;;;;7.95;100.00;99308.09;5089008;28;20048;-49
2023/03/11 19:56:43;;;;;;;34.42;12.13;;;;;;;7.94;100.00;99303.78;5089211;28;20410;-41
2023/03/11 19:59:10;;;;;;;36.65;12.27;;;;;;;7.94;100.00;99312.81;5062221;28;20050;-43
2023/03/11 20:01:37;;;;;;;34.53;11.82;;;;;;;7.98;100.00;99316.47;5089027;28;20071;-43
2023/03/11 20:04:04;;;;;;;43.63;13.68;;;;;;;8.01;100.00;99305.88;5055945;28;20049;-41
2023/03/11 20:06:31;;;;;;;41.72;11.27;;;;;;;8.03;100.00;99314.56;5081990;28;20444;-43
2023/03/11 20:08:58;;;;;;;41.60;12.40;;;;;;;8.05;100.00;99312.25;5063219;28;20048;-41
2023/03/11 20:11:24;;;;;;;36.53;12.05;;;;;;;8.09;100.00;99316.66;5089042;28;20078;-44
2023/03/11 20:13:51;;;;;;;36.55;10.73;;;;;;;8.11;100.00;99328.13;5088538;28;20122;-43
2023/03/11 20:16:18;;;;;;;51.17;11.93;;;;;;;8.12;100.00;99340.75;5071615;28;20044;-41
2023/03/11 20:18:49;;;;;;;63.72;15.77;;;;;;;8.15;100.00;99334.53;5059530;28;20039;-41
2023/03/11 20:21:17;;;;;;;82.30;18.90;;;;;;;8.15;100.00;99334.53;5068032;28;20052;-41
2023/03/11 20:23:44;;;;;;;64.93;16.42;;;;;;;8.13;100.00;99336.81;5050292;28;20468;-41
2023/03/11 20:26:13;;;;;;;82.50;16.25;;;;;;;8.13;100.00;99345.09;5070308;28;20525;-41
2023/03/11 20:28:40;;;;;;;75.72;17.08;;;;;;;8.11;100.00;99352.13;5072091;28;20048;-41
2023/03/11 20:31:08;;;;;;;77.45;15.48;;;;;;;8.11;100.00;99346.63;5064750;28;20063;-43
2023/03/11 20:33:36;;;;;;;87.63;18.50;;;;;;;8.12;100.00;99348.22;5077239;28;20060;-45
2023/03/11 20:36:05;;;;;;;64.30;15.43;;;;;;;8.12;100.00;99353.75;5068108;28;20051;-41
2023/03/11 20:38:32;;;;;;;68.57;16.67;;;;;;;8.14;100.00;99356.94;5069728;28;20052;-42
2023/03/11 20:40:59;;;;;;;65.07;14.18;;;;;;;8.14;100.00;99359.69;5063331;28;20035;-43
2023/03/11 20:43:26;;;;;;;74.60;14.40;;;;;;;8.14;100.00;99367.94;5063561;28;20114;-42
2023/03/11 20:45:52;;;;;;;75.22;14.98;;;;;;;8.16;100.00;99360.09;5074198;28;20050;-41
2023/03/11 20:48:19;;;;;;;76.90;14.95;;;;;;;8.16;100.00;99362.88;5069785;28;20040;-41
2023/03/11 20:50:46;;;;;;;78.25;15.95;;;;;;;8.20;100.00;99366.50;5066126;28;20082;-51
2023/03/11 20:53:13;;;;;;;59.45;14.55;;;;;;;8.19;100.00;99360.19;5041146;28;20048;-41
2023/03/11 20:55:41;;;;;;;76.10;14.35;;;;;;;8.22;100.00;99364.97;5065929;28;20052;-41
2023/03/11 20:58:08;;;;;;;77.50;15.02;;;;;;;8.24;100.00;99381.16;5064596;28;20112;-41
2023/03/11 21:00:35;;;;;;;66.97;15.10;;;;;;;8.21;100.00;99384.63;5071078;28;20099;-41
2023/03/11 21:03:02;;;;;;;67.78;14.75;;;;;;;8.20;100.00;99375.59;5061274;28;20040;-42
2023/03/11 21:05:35;;;;;;;55.10;12.00;;;;;;;8.21;100.00;99398.41;5067273;28;20043;-41
2023/03/11 21:08:03;;;;;;;55.13;13.35;;;;;;;8.20;100.00;99392.13;5046559;28;20049;-41
2023/03/11 21:10:30;;;;;;;65.60;12.80;;;;;;;8.22;100.00;99380.72;5071023;28;20083;-42
2023/03/11 21:12:57;;;;;;;56.88;13.85;;;;;;;8.24;100.00;99394.94;5058537;28;20052;-42
2023/03/11 21:15:24;;;;;;;57.72;11.77;;;;;;;8.23;100.00;99396.13;5051642;28;20063;-41
2023/03/11 21:17:51;;;;;;;47.85;11.10;;;;;;;8.22;100.00;99384.28;5073468;28;20162;-41
2023/03/11 21:20:18;;;;;;;52.63;14.27;;;;;;;8.22;100.00;99389.00;5063114;28;20044;-41
2023/03/11 21:22:45;;;;;;;50.00;11.27;;;;;;;8.21;100.00;99387.38;5067254;28;20037;-45
2023/03/11 21:25:11;;;;;;;65.55;15.00;;;;;;;8.23;100.00;99396.13;5072464;28;20051;-42
2023/03/11 21:27:38;;;;;;;42.55;10.25;;;;;;;8.23;100.00;99399.69;5074573;28;20044;-48
2023/03/11 21:30:06;;;;;;;49.85;11.18;;;;;;;8.24;100.00;99398.50;5053395;28;20045;-41
2023/03/11 21:32:32;;;;;;;45.80;12.05;;;;;;;8.26;100.00;99417.44;5066908;28;20040;-44
2023/03/11 21:35:00;;;;;;;53.42;11.18;;;;;;;8.25;100.00;99405.63;5074091;28;20056;-41
2023/03/11 21:37:27;;;;;;;48.05;10.20;;;;;;;8.24;100.00;99420.56;5064838;28;20446;-41
2023/03/11 21:39:54;;;;;;;40.80;9.85;;;;;;;8.25;100.00;99404.81;5070840;28;20057;-44
2023/03/11 21:42:22;;;;;;;51.30;11.75;;;;;;;8.26;100.00;99417.44;5074173;28;20032;-41
2023/03/11 21:44:50;;;;;;;45.80;9.82;;;;;;;8.25;100.00;99413.09;5070817;28;20135;-44
2023/03/11 21:47:17;;;;;;;42.90;9.93;;;;;;;8.26;100.00;99420.22;5066152;28;20049;-40
2023/03/11 21:49:44;;;;;;;52.88;9.77;;;;;;;8.25;100.00;99432.38;5065744;28;20521;-40
2023/03/11 21:52:11;;;;;;;50.40;10.32;;;;;;;8.24;100.00;99415.03;5047706;28;20399;-42
2023/03/11 21:54:38;;;;;;;43.47;10.68;;;;;;;8.25;100.00;99422.16;5064240;28;20056;-40
2023/03/11 21:57:04;;;;;;;53.17;9.52;;;;;;;8.25;100.00;99430.44;5066710;28;20055;-40
2023/03/11 21:59:31;;;;;;;48.55;9.15;;;;;;;8.27;100.00;99427.34;5069169;28;20622;-40
2023/03/11 22:02:01;;;;;;;36.33;9.00;;;;;;;8.28;100.00;99437.22;5065773;28;20063;-40
2023/03/11 22:04:30;;;;;;;48.92;11.32;;;;;;;8.27;100.00;99436.41;5069860;28;20059;-41
2023/03/11 22:06:57;;;;;;;43.22;8.80;;;;;;;8.28;100.00;99438.03;5061615;28;20068;-40
2023/03/11 22:09:24;;;;;;;29.15;8.25;;;;;;;8.28;100.00;99445.50;5077473;28;20067;-47
2023/03/11 22:11:52;;;;;;;41.28;8.65;;;;;;;8.29;100.00;99444.31;5065989;28;20041;-40
2023/03/11 22:14:19;;;;;;;29.58;6.57;;;;;;;8.27;100.00;99444.69;5074459;28;20055;-40
2023/03/11 22:16:46;;;;;;;41.03;8.70;;;;;;;8.28;100.00;99448.25;5052993;28;20047;-43
2023/03/11 22:19:12;;;;;;;34.17;6.82;;;;;;;8.28;100.00;99453.75;5070018;28;20056;-41
2023/03/11 22:21:39;;;;;;;32.35;7.72;;;;;;;8.29;100.00;99441.53;5072969;28;20578;-44
2023/03/11 22:24:06;;;;;;;41.97;7.07;;;;;;;8.29;100.00;99444.31;5055430;28;20073;-41
2023/03/11 22:26:33;;;;;;;22.77;7.03;;;;;;;8.28;100.00;99437.22;5060983;28;20063;-40
2023/03/11 22:29:00;;;;;;;35.40;6.90;;;;;;;8.26;100.00;99439.50;5069201;28;20498;-41
2023/03/11 22:31:29;;;;;;;33.88;6.68;;;;;;;8.26;100.00;99440.28;5067480;28;20481;-40
2023/03/11 22:33:56;;;;;;;35.80;7.75;;;;;;;8.27;100.00;99441.13;5068152;28;20109;-40
2023/03/11 22:36:23;;;;;;;42.92;9.73;;;;;;;8.27;100.00;99452.94;5076256;28;20397;-42
2023/03/11 22:38:50;;;;;;;35.22;8.15;;;;;;;8.27;100.00;99452.16;5061791;28;20147;-40
2023/03/11 22:41:18;;;;;;;27.73;6.72;;;;;;;8.26;100.00;99456.06;5064236;28;20047;-46
2023/03/11 22:43:45;;;;;;;38.63;8.77;;;;;;;8.26;100.00;99454.06;5061799;28;20053;-43
2023/03/11 22:46:12;;;;;;;41.50;7.50;;;;;;;8.31;100.00;99464.06;5069977;28;20045;-40
2023/03/11 22:48:39;;;;;;;45.05;7.63;;;;;;;8.28;100.00;99460.06;5068452;28;20044;-41
2023/03/11 22:51:06;;;;;;;37.13;7.45;;;;;;;8.30;100.00;99462.47;5057790;28;20045;-40
2023/03/11 22:53:33;;;;;;;35.08;7.72;;;;;;;8.28;100.00;99462.84;5069096;28;20147;-41
2023/03/11 22:56:04;;;;;;;27.70;5.30;;;;;;;8.28;100.00;99462.03;5073465;28;20293;-41
2023/03/11 22:58:31;;;;;;;22.67;5.47;;;;;;;8.27;100.00;99479.72;5066494;28;20041;-40
2023/03/11 23:00:59;;;;;;;25.48;5.65;;;;;;;8.25;100.00;99476.50;5069240;28;20384;-41
2023/03/11 23:03:26;;;;;;;28.98;6.80;;;;;;;8.24;100.00;99472.13;5072651;28;20460;-41
2023/03/11 23:05:57;;;;;;;23.48;6.63;;;;;;;8.22;100.00;99477.22;5061644;28;20084;-41
2023/03/11 23:08:24;;;;;;;21.23;5.93;;;;;;;8.21;100.00;99475.59;5064701;28;20049;-41
2023/03/11 23:10:51;;;;;;;33.83;7.93;;;;;;;8.20;100.00;99474.84;5061177;28;20402;-46
2023/03/11 23:13:18;;;;;;;36.90;8.30;;;;;;;8.22;100.00;99474.47;5071819;28;20055;-41
2023/03/11 23:15:46;;;;;;;46.70;8.30;;;;;;;8.20;100.00;99476.78;5069824;28;20075;-40
2023/03/11 23:18:14;;;;;;;41.05;9.63;;;;;;;8.18;100.00;99471.63;5066667;28;20490;-40
2023/03/11 23:20:42;;;;;;;37.88;8.48;;;;;;;8.15;100.00;99466.84;5045496;28;20037;-40
2023/03/11 23:23:11;;;;;;;53.78;11.05;;;;;;;8.16;100.00;99467.63;5059658;28;20102;-40
2023/03/11 23:25:39;;;;;;;45.53;8.40;;;;;;;8.14;100.00;99464.44;5062234;28;20068;-40
2023/03/11 23:28:06;;;;;;;39.58;8.13;;;;;;;8.13;100.00;99457.34;5069966;28;20036;-40
2023/03/11 23:30:33;;;;;;;49.75;11.02;;;;;;;8.09;100.00;99468.28;5061573;28;20497;-47
2023/03/11 23:33:03;;;;;;;62.13;8.50;;;;;;;8.08;100.00;99468.63;5064955;28;20048;-49
2023/03/11 23:35:31;;;;;;;51.00;8.93;;;;;;;8.07;100.00;99454.06;5062638;28;20068;-41
2023/03/11 23:37:58;;;;;;;53.60;11.55;;;;;;;8.07;100.00;99467.03;5061868;28;20044;-41
2023/03/11 23:40:25;;;;;;;39.85;7.97;;;;;;;8.06;100.00;99463.47;5056656;28;20045;-40
2023/03/11 23:42:52;;;;;;;38.50;11.20;;;;;;;8.07;100.00;99475.31;5063532;28;20090;-42
2023/03/11 23:45:19;;;;;;;55.30;10.02;;;;;;;8.05;100.00;99466.59;5063015;28;20123;-40
2023/03/11 23:47:45;;;;;;;67.45;10.55;;;;;;;7.99;100.00;99469.63;5061628;28;20037;-41
2023/03/11 23:50:12;;;;;;;50.00;11.23;;;;;;;7.99;100.00;99480.63;5058019;28;20088;-40
2023/03/11 23:52:39;;;;;;;53.63;10.60;;;;;;;7.97;100.00;99482.16;5062524;28;20049;-40
2023/03/11 23:55:07;;;;;;;64.10;11.73;;;;;;;7.95;100.00;99484.47;5056707;28;20123;-41
2023/03/11 23:57:37;;;;;;;61.00;9.27;;;;;;;7.93;100.00;99486.78;5063594;28;20040;-41
